Koushinmaru No.5 — JL6695 — position and weather

sailwx.info

Track history (hours):
 
Tides and Currents Weather Stations Pressure Air Temp Water Temp Dewpoint Dewpoint Depression Visibility Wind Speed Wind Dir Waves Ship Positions

Koushinmaru No.5

Last reported at 2017-Feb-07 21:32 UTC. Time now 2017-Feb-27 06:54 UTC.
Position N 35°08' E 139°45'.
Warning: this ship's position is 19 days out of date.

Length 75 m; draft 4.9 m.

Type: Cargo ship. MMSI: 431301703.

Date/timePositionNaut miles runAvg speedWind from/ knotsBaromVisibWave heightAir tempDewpointWater temp
2017-Feb-07 21:32N 35°08' E 139°45'1211.8
2017-Feb-07 20:33N 35°19' E 139°43'7 6.8
2017-Feb-07 19:33N 35°24' E 139°49'2 1.9
2017-Feb-07 18:33N 35°22' E 139°49'0 0.0
2017-Feb-07 17:33N 35°22' E 139°49'0 0.0
2017-Feb-07 16:33N 35°22' E 139°49'0 0.0
2017-Feb-07 15:34N 35°22' E 139°49'0 0.0
2017-Feb-07 14:33N 35°22' E 139°49'0 0.0
2017-Feb-07 13:33N 35°22' E 139°49'0 0.0
2017-Feb-07 12:33N 35°22' E 139°49'0 0.0
2017-Feb-07 11:34N 35°22' E 139°49'0 0.0
2017-Feb-07 10:33N 35°22' E 139°49'0 0.0
2017-Feb-07 09:33N 35°22' E 139°49'0 0.0
2017-Feb-07 08:33N 35°22' E 139°49'0 0.0
2017-Feb-07 07:33N 35°22' E 139°49'0 0.0
2017-Feb-07 06:33N 35°22' E 139°49'0 0.0
2017-Feb-07 05:33N 35°22' E 139°49'0 0.0
2017-Feb-07 04:34N 35°22' E 139°49'0 0.0
2017-Feb-07 03:33N 35°22' E 139°49'0 0.0
2017-Feb-07 02:33N 35°22' E 139°49'0 0.0
2017-Feb-07 01:33N 35°22' E 139°49'0 0.0
2017-Feb-07 00:34N 35°22' E 139°49'0 0.0
2017-Feb-06 23:33N 35°22' E 139°49'0 0.0
2017-Feb-06 22:33N 35°22' E 139°49'0 0.0
2017-Feb-06 21:33N 35°22' E 139°49'0 0.0
2017-Feb-06 20:33N 35°22' E 139°49'0 0.0
2017-Feb-06 19:33N 35°22' E 139°49'0 0.0
2017-Feb-06 18:33N 35°22' E 139°49'0 0.0
2017-Feb-06 17:33N 35°22' E 139°49'0 0.0
2017-Feb-06 16:34N 35°22' E 139°49'0 0.0
2017-Feb-06 15:34N 35°22' E 139°49'0 0.0
2017-Feb-06 14:33N 35°22' E 139°49'0 0.0
2017-Feb-06 13:33N 35°22' E 139°49'0 0.0
2017-Feb-06 12:34N 35°22' E 139°49'0 0.0
2017-Feb-06 11:34N 35°22' E 139°49'0 0.0
2017-Feb-06 10:33N 35°22' E 139°49'0 0.0
2017-Feb-06 09:33N 35°22' E 139°49'0 0.0
2017-Feb-06 08:33N 35°22' E 139°49'0 0.0
2017-Feb-06 07:32N 35°22' E 139°49'0 0.0
2017-Feb-06 06:34N 35°22' E 139°49'0 0.0
2017-Feb-06 05:34N 35°22' E 139°49'0 0.0
2017-Feb-06 04:33N 35°22' E 139°49'0 0.0
2017-Feb-06 03:33N 35°22' E 139°49'0 0.1
2017-Feb-06 02:34N 35°22' E 139°49'0 0.1
2017-Feb-06 01:34N 35°22' E 139°49'0 0.0
2017-Feb-06 00:32N 35°22' E 139°49'0 0.0
2017-Feb-05 23:33N 35°22' E 139°49'0 0.0
2017-Feb-05 22:33N 35°22' E 139°49'0 0.0
2017-Feb-05 21:33N 35°22' E 139°49'0 0.0
2017-Feb-05 20:33N 35°22' E 139°49'2 1.8
2017-Feb-05 19:33N 35°21' E 139°51'1 0.1
2017-Feb-05 10:32N 35°22' E 139°50'6 6.2
2017-Feb-05 09:34N 35°18' E 139°45'356 9.1
2017-Feb-03 18:31N 33°57' E 132°43'1111.6
2017-Feb-03 17:33N 33°50' E 132°33'1211.5
2017-Feb-03 16:33N 33°43' E 132°22'  
2017-Feb-01 03:04N 33°50' E 132°16'610.0
2017-Feb-01 02:30N 33°50' E 132°23'9 9.6
2017-Feb-01 01:33N 33°53' E 132°33'9 9.1
2017-Feb-01 00:33N 33°58' E 132°42'  
Track history (hours):
 
Tides and Currents Weather Stations Pressure Air Temp Water Temp Dewpoint Dewpoint Depression Visibility Wind Speed Wind Dir Waves Ship Positions

Koushinmaru No.5

Last reported at 2017-Feb-07 21:32 UTC. Time now 2017-Feb-27 06:54 UTC.
Position N 35°08' E 139°45'.
Warning: this ship's position is 19 days out of date.

Length 75 m; draft 4.9 m.

Type: Cargo ship. MMSI: 431301703.

Date/timePositionNaut miles runAvg speedWind from/ knotsBaromVisibWave heightAir tempDewpointWater temp
2017-Feb-07 21:32N 35°08' E 139°45'1211.8
2017-Feb-07 20:33N 35°19' E 139°43'7 6.8
2017-Feb-07 19:33N 35°24' E 139°49'2 1.9
2017-Feb-07 18:33N 35°22' E 139°49'0 0.0
2017-Feb-07 17:33N 35°22' E 139°49'0 0.0
2017-Feb-07 16:33N 35°22' E 139°49'0 0.0
2017-Feb-07 15:34N 35°22' E 139°49'0 0.0
2017-Feb-07 14:33N 35°22' E 139°49'0 0.0
2017-Feb-07 13:33N 35°22' E 139°49'0 0.0
2017-Feb-07 12:33N 35°22' E 139°49'0 0.0
2017-Feb-07 11:34N 35°22' E 139°49'0 0.0
2017-Feb-07 10:33N 35°22' E 139°49'0 0.0
2017-Feb-07 09:33N 35°22' E 139°49'0 0.0
2017-Feb-07 08:33N 35°22' E 139°49'0 0.0
2017-Feb-07 07:33N 35°22' E 139°49'0 0.0
2017-Feb-07 06:33N 35°22' E 139°49'0 0.0
2017-Feb-07 05:33N 35°22' E 139°49'0 0.0
2017-Feb-07 04:34N 35°22' E 139°49'0 0.0
2017-Feb-07 03:33N 35°22' E 139°49'0 0.0
2017-Feb-07 02:33N 35°22' E 139°49'0 0.0
2017-Feb-07 01:33N 35°22' E 139°49'0 0.0
2017-Feb-07 00:34N 35°22' E 139°49'0 0.0
2017-Feb-06 23:33N 35°22' E 139°49'0 0.0
2017-Feb-06 22:33N 35°22' E 139°49'0 0.0
2017-Feb-06 21:33N 35°22' E 139°49'0 0.0
2017-Feb-06 20:33N 35°22' E 139°49'0 0.0
2017-Feb-06 19:33N 35°22' E 139°49'0 0.0
2017-Feb-06 18:33N 35°22' E 139°49'0 0.0
2017-Feb-06 17:33N 35°22' E 139°49'0 0.0
2017-Feb-06 16:34N 35°22' E 139°49'0 0.0
2017-Feb-06 15:34N 35°22' E 139°49'0 0.0
2017-Feb-06 14:33N 35°22' E 139°49'0 0.0
2017-Feb-06 13:33N 35°22' E 139°49'0 0.0
2017-Feb-06 12:34N 35°22' E 139°49'0 0.0
2017-Feb-06 11:34N 35°22' E 139°49'0 0.0
2017-Feb-06 10:33N 35°22' E 139°49'0 0.0
2017-Feb-06 09:33N 35°22' E 139°49'0 0.0
2017-Feb-06 08:33N 35°22' E 139°49'0 0.0
2017-Feb-06 07:32N 35°22' E 139°49'0 0.0
2017-Feb-06 06:34N 35°22' E 139°49'0 0.0
2017-Feb-06 05:34N 35°22' E 139°49'0 0.0
2017-Feb-06 04:33N 35°22' E 139°49'0 0.0
2017-Feb-06 03:33N 35°22' E 139°49'0 0.1
2017-Feb-06 02:34N 35°22' E 139°49'0 0.1
2017-Feb-06 01:34N 35°22' E 139°49'0 0.0
2017-Feb-06 00:32N 35°22' E 139°49'0 0.0
2017-Feb-05 23:33N 35°22' E 139°49'0 0.0
2017-Feb-05 22:33N 35°22' E 139°49'0 0.0
2017-Feb-05 21:33N 35°22' E 139°49'0 0.0
2017-Feb-05 20:33N 35°22' E 139°49'2 1.8
2017-Feb-05 19:33N 35°21' E 139°51'1 0.1
2017-Feb-05 10:32N 35°22' E 139°50'6 6.2
2017-Feb-05 09:34N 35°18' E 139°45'356 9.1
2017-Feb-03 18:31N 33°57' E 132°43'1111.6
2017-Feb-03 17:33N 33°50' E 132°33'1211.5
2017-Feb-03 16:33N 33°43' E 132°22'  
2017-Feb-01 03:04N 33°50' E 132°16'610.0
2017-Feb-01 02:30N 33°50' E 132°23'9 9.6
2017-Feb-01 01:33N 33°53' E 132°33'9 9.1
2017-Feb-01 00:33N 33°58' E 132°42'  

Dump ship's entire track history